To NAV CANADA Home Page Login to a new session Search on AWWS site Feedback and Comments Disclaimer Vers la page française équivalente Tips FAQ What's new on the site To the Forecasts and Observations / NOTAM section To "File a Flight Plan" website Publications and other links Update of the User's profile FIC Telephone Numbers My Weather Data Folder Route Weather Data Regional Weather Data Local Weather Data To the Forecasts and Observations / NOTAM section
Request Generated 06/30/2015 at 09:57:13 UTC . Weather information available at that time is displayed.

METAR/TAF

COMOX/BC    

METAR CYQQ 300900Z 31004KT 20SM SKC 20/12 A3003 RMK SLP171=
METAR CYQQ 300800Z 34013G18KT 20SM SKC 20/13 A3003 RMK SLP169=
METAR CYQQ 300700Z 34011KT 20SM FEW100 21/13 A3002 RMK AC1 SLP165=

TAF CYQQ 300539Z 3006/0106 34006KT P6SM FEW100
BECMG 3020/3022 34012KT SCT080
RMK NXT FCST BY 301200Z=
Your time UTC time
Weather data provided by Environment Canada and NAV CANADA